Time;durP1;ratioP1;P1;durP2;ratioP2;P2;SDS_P1;SDS_P2;PMS_P1;PMS_P2;Temp;Humidity;BMP_temperature;BMP_pressure;BME280_temperature;BME280_humidity;BME280_pressure;Samples;Min_cycle;Max_cycle;Signal;HPM_P1;HPM_P2
2023/04/22 00:01:37;;;;;;;;;;;13.70;78.00;;;;;;4935822;29;20366;-71
2023/04/22 00:04:02;;;;;;;;;;;13.70;77.80;;;;;;4947022;29;19922;-70
2023/04/22 00:06:28;;;;;;;;;;;13.60;78.30;;;;;;4945438;29;19922;-70
2023/04/22 00:08:53;;;;;;;;;;;13.60;78.60;;;;;;4917019;29;20000;-70
2023/04/22 00:11:19;;;;;;;;;;;13.60;78.80;;;;;;4931957;29;20378;-71
2023/04/22 00:13:45;;;;;;;;;;;13.60;78.70;;;;;;4932937;29;19919;-71
2023/04/22 00:16:10;;;;;;;;;;;13.50;78.80;;;;;;4916946;29;19958;-71
2023/04/22 00:18:36;;;;;;;;;;;13.60;79.40;;;;;;4917038;29;19914;-71
2023/04/22 00:21:02;;;;;;;;;;;13.50;79.30;;;;;;4922665;29;20363;-71
2023/04/22 00:23:28;;;;;;;;;;;13.50;79.30;;;;;;4916798;29;20008;-71
2023/04/22 00:25:54;;;;;;;;;;;13.40;79.40;;;;;;4917139;29;19922;-71
2023/04/22 00:28:19;;;;;;;;;;;13.50;79.40;;;;;;4948959;29;19911;-70
2023/04/22 00:30:45;;;;;;;;;;;13.40;80.40;;;;;;4932737;29;19961;-71
2023/04/22 00:33:10;;;;;;;;;;;13.40;80.40;;;;;;4939049;29;19929;-71
2023/04/22 00:35:36;;;;;;;;;;;13.40;80.70;;;;;;4929218;29;19910;-71
2023/04/22 00:38:02;;;;;;;;;;;13.30;80.90;;;;;;4939831;29;19911;-70
2023/04/22 00:40:28;;;;;;;;;;;13.30;80.80;;;;;;4939603;29;19918;-71
2023/04/22 00:42:53;;;;;;;;;;;13.30;80.90;;;;;;4938754;29;19920;-71
2023/04/22 00:45:19;;;;;;;;;;;13.30;81.40;;;;;;4928110;29;20236;-71
2023/04/22 00:47:45;;;;;;;;;;;13.30;81.30;;;;;;4920609;29;19918;-71
2023/04/22 00:50:11;;;;;;;;;;;13.20;80.90;;;;;;4929731;29;19941;-71
2023/04/22 00:52:36;;;;;;;;;;;13.20;81.30;;;;;;4935548;29;19925;-71
2023/04/22 00:55:02;;;;;;;;;;;13.30;81.40;;;;;;4943160;29;19923;-70
2023/04/22 00:57:28;;;;;;;;;;;13.30;81.50;;;;;;4950398;29;20021;-71
2023/04/22 00:59:54;;;;;;;;;;;13.20;81.60;;;;;;4950691;29;19919;-71
2023/04/22 01:02:19;;;;;;;;;;;13.20;81.50;;;;;;4951799;29;20235;-71
2023/04/22 01:04:45;;;;;;;;;;;13.20;81.60;;;;;;4935375;29;19915;-71
2023/04/22 01:07:11;;;;;;;;;;;13.20;81.50;;;;;;4950679;29;19949;-70
2023/04/22 01:09:37;;;;;;;;;;;13.20;81.90;;;;;;4935052;29;19914;-70
2023/04/22 01:12:02;;;;;;;;;;;13.10;82.10;;;;;;4932957;29;19941;-70
2023/04/22 01:14:28;;;;;;;;;;;13.10;83.00;;;;;;4935557;29;19915;-71
2023/04/22 01:16:54;;;;;;;;;;;13.10;82.60;;;;;;4951606;29;20350;-71
2023/04/22 01:19:19;;;;;;;;;;;13.10;82.90;;;;;;4935209;29;19922;-71
2023/04/22 01:21:45;;;;;;;;;;;13.00;82.80;;;;;;4952010;29;20475;-71
2023/04/22 01:24:11;;;;;;;;;;;13.00;82.70;;;;;;4951514;29;19918;-71
2023/04/22 01:26:37;;;;;;;;;;;13.00;82.50;;;;;;4935594;29;19917;-71
2023/04/22 01:29:03;;;;;;;;;;;13.00;82.60;;;;;;4934485;29;19914;-71
2023/04/22 01:31:28;;;;;;;;;;;12.90;83.20;;;;;;4951424;29;19953;-71
2023/04/22 01:33:54;;;;;;;;;;;12.90;82.80;;;;;;4934020;29;19918;-71
2023/04/22 01:36:20;;;;;;;;;;;13.00;83.00;;;;;;4931438;29;20276;-71
2023/04/22 01:38:47;;;;;;;;;;;13.00;83.10;;;;;;4938783;29;20312;-71
2023/04/22 01:41:13;;;;;;;;;;;12.90;83.40;;;;;;4951164;29;19942;-71
2023/04/22 01:43:39;;;;;;;;;;;12.90;83.50;;;;;;4950925;29;19914;-70
2023/04/22 01:46:05;;;;;;;;;;;12.90;83.40;;;;;;4933999;29;19957;-70
2023/04/22 01:48:31;;;;;;;;;;;12.80;83.70;;;;;;4950782;29;19947;-70
2023/04/22 01:50:56;;;;;;;;;;;12.80;83.80;;;;;;4930998;29;19922;-70
2023/04/22 01:53:22;;;;;;;;;;;12.80;84.60;;;;;;4949728;28;20006;-71
2023/04/22 01:55:47;;;;;;;;;;;12.70;84.70;;;;;;4933745;29;20336;-71
2023/04/22 01:58:13;;;;;;;;;;;12.80;85.00;;;;;;4933591;29;20379;-70
2023/04/22 02:00:39;;;;;;;;;;;12.70;85.20;;;;;;4933626;29;19910;-71
2023/04/22 02:03:05;;;;;;;;;;;12.70;85.10;;;;;;4950548;29;20292;-71
2023/04/22 02:05:31;;;;;;;;;;;12.70;85.00;;;;;;4949751;29;19914;-71
2023/04/22 02:07:56;;;;;;;;;;;12.70;84.90;;;;;;4946372;29;19919;-71
2023/04/22 02:10:22;;;;;;;;;;;12.70;84.80;;;;;;4932645;29;19928;-71
2023/04/22 02:12:48;;;;;;;;;;;12.70;85.50;;;;;;4945182;29;20647;-71
2023/04/22 02:15:13;;;;;;;;;;;12.70;85.50;;;;;;4946892;29;20299;-71
2023/04/22 02:17:41;;;;;;;;;;;12.70;85.50;;;;;;4949148;29;19973;-71
2023/04/22 02:20:06;;;;;;;;;;;12.60;86.00;;;;;;4949084;29;20738;-71
2023/04/22 02:22:32;;;;;;;;;;;12.60;86.40;;;;;;4946896;29;20005;-71
2023/04/22 02:24:58;;;;;;;;;;;12.50;86.60;;;;;;4917136;29;19974;-71
2023/04/22 02:27:24;;;;;;;;;;;12.40;87.10;;;;;;4949026;29;20002;-71
2023/04/22 02:29:50;;;;;;;;;;;12.40;87.10;;;;;;4946643;29;20239;-71
2023/04/22 02:32:16;;;;;;;;;;;12.40;88.40;;;;;;4948951;29;19919;-71
2023/04/22 02:34:42;;;;;;;;;;;12.40;88.00;;;;;;4932988;29;19915;-71
2023/04/22 02:37:07;;;;;;;;;;;12.40;88.10;;;;;;4943011;29;19919;-71
2023/04/22 02:39:33;;;;;;;;;;;12.40;87.50;;;;;;4933982;29;20263;-71
2023/04/22 02:41:59;;;;;;;;;;;12.40;87.80;;;;;;4949859;29;20248;-71
2023/04/22 02:44:24;;;;;;;;;;;12.40;88.00;;;;;;4932318;29;19917;-71
2023/04/22 02:46:50;;;;;;;;;;;12.30;88.20;;;;;;4932898;29;20263;-71
2023/04/22 02:49:15;;;;;;;;;;;12.30;88.50;;;;;;4948223;28;20236;-71
2023/04/22 02:51:41;;;;;;;;;;;12.10;89.30;;;;;;4928153;29;19917;-71
2023/04/22 02:54:06;;;;;;;;;;;12.20;89.20;;;;;;4893034;29;1147966;-71
2023/04/22 02:56:32;;;;;;;;;;;12.20;89.70;;;;;;4915993;29;19926;-71
2023/04/22 02:58:58;;;;;;;;;;;12.20;89.50;;;;;;4911874;29;19914;-71
2023/04/22 03:01:23;;;;;;;;;;;12.20;89.70;;;;;;4912871;29;19975;-71
2023/04/22 03:03:49;;;;;;;;;;;12.20;89.50;;;;;;4930409;29;19997;-71
2023/04/22 03:06:15;;;;;;;;;;;12.10;89.60;;;;;;4914091;29;19926;-71
2023/04/22 03:08:40;;;;;;;;;;;12.20;89.80;;;;;;4916911;29;20213;-71
2023/04/22 03:11:06;;;;;;;;;;;12.10;90.40;;;;;;4923237;29;20288;-71
2023/04/22 03:13:32;;;;;;;;;;;12.10;90.10;;;;;;4914776;29;19986;-71
2023/04/22 03:15:58;;;;;;;;;;;12.10;90.00;;;;;;4929763;29;19954;-72
2023/04/22 03:18:24;;;;;;;;;;;12.10;89.60;;;;;;4898353;29;19922;-71
2023/04/22 03:20:50;;;;;;;;;;;12.20;89.80;;;;;;4898385;29;19926;-71
2023/04/22 03:23:16;;;;;;;;;;;12.10;89.80;;;;;;4909680;29;19922;-72
2023/04/22 03:25:42;;;;;;;;;;;12.10;89.90;;;;;;4914438;29;19914;-72
2023/04/22 03:28:07;;;;;;;;;;;12.20;90.00;;;;;;4896066;29;20359;-72
2023/04/22 03:30:33;;;;;;;;;;;12.10;90.10;;;;;;4913866;29;20329;-72
2023/04/22 03:32:58;;;;;;;;;;;12.10;90.20;;;;;;4915176;29;19922;-72
2023/04/22 03:35:24;;;;;;;;;;;12.10;90.20;;;;;;4914076;29;19914;-71
2023/04/22 03:37:50;;;;;;;;;;;12.00;90.90;;;;;;4910251;29;20357;-72
2023/04/22 03:40:17;;;;;;;;;;;11.90;90.80;;;;;;4913778;29;19926;-71
2023/04/22 03:42:42;;;;;;;;;;;11.90;91.20;;;;;;4914323;29;20336;-71
2023/04/22 03:45:08;;;;;;;;;;;11.80;91.30;;;;;;4916914;29;20312;-71
2023/04/22 03:47:34;;;;;;;;;;;11.70;91.10;;;;;;4915325;29;19915;-71
2023/04/22 03:50:00;;;;;;;;;;;11.80;91.20;;;;;;4910320;29;20462;-71
2023/04/22 03:52:25;;;;;;;;;;;11.90;90.90;;;;;;4913418;29;20368;-71
2023/04/22 03:54:51;;;;;;;;;;;12.00;90.80;;;;;;4937454;29;19982;-71
2023/04/22 03:57:17;;;;;;;;;;;12.00;90.80;;;;;;4932434;29;19914;-71
2023/04/22 03:59:42;;;;;;;;;;;12.10;90.40;;;;;;4943949;29;19911;-71
2023/04/22 04:02:08;;;;;;;;;;;12.10;90.50;;;;;;4946115;29;19919;-72
2023/04/22 04:04:33;;;;;;;;;;;12.20;90.50;;;;;;4948915;29;19915;-72
2023/04/22 04:06:59;;;;;;;;;;;12.20;90.40;;;;;;4945078;29;19972;-71
2023/04/22 04:09:25;;;;;;;;;;;12.30;90.40;;;;;;4945402;29;20240;-71
2023/04/22 04:11:51;;;;;;;;;;;12.30;90.20;;;;;;4932145;29;19921;-71
2023/04/22 04:14:16;;;;;;;;;;;12.30;90.20;;;;;;4930200;29;19934;-71
2023/04/22 04:16:42;;;;;;;;;;;12.40;90.10;;;;;;4932311;29;19970;-71
2023/04/22 04:19:08;;;;;;;;;;;12.40;90.00;;;;;;4933180;29;19922;-71
2023/04/22 04:21:34;;;;;;;;;;;12.40;89.60;;;;;;4931885;29;19921;-72
2023/04/22 04:23:59;;;;;;;;;;;12.50;89.10;;;;;;4932152;29;20005;-72
2023/04/22 04:26:26;;;;;;;;;;;12.50;88.90;;;;;;4929194;29;19926;-71
2023/04/22 04:28:52;;;;;;;;;;;12.50;89.40;;;;;;4932141;29;20248;-71
2023/04/22 04:31:18;;;;;;;;;;;12.50;89.00;;;;;;4929984;29;19915;-72
2023/04/22 04:33:45;;;;;;;;;;;12.60;88.90;;;;;;4932368;29;19926;-72
2023/04/22 04:36:11;;;;;;;;;;;12.70;88.70;;;;;;4931175;29;20000;-71
2023/04/22 04:38:36;;;;;;;;;;;12.70;88.40;;;;;;4931285;29;19914;-72
2023/04/22 04:41:02;;;;;;;;;;;12.70;88.30;;;;;;4947179;29;20332;-71
2023/04/22 04:43:28;;;;;;;;;;;12.80;88.10;;;;;;4948781;29;19949;-71
2023/04/22 04:45:54;;;;;;;;;;;12.70;87.90;;;;;;4931270;29;20255;-71
2023/04/22 04:48:19;;;;;;;;;;;12.70;88.00;;;;;;4932095;29;20013;-71
2023/04/22 04:50:46;;;;;;;;;;;12.70;88.20;;;;;;4931180;29;19918;-72
2023/04/22 04:53:11;;;;;;;;;;;12.80;88.00;;;;;;4931655;29;19930;-71
2023/04/22 04:55:37;;;;;;;;;;;12.80;87.70;;;;;;4931849;29;19923;-71
2023/04/22 04:58:03;;;;;;;;;;;12.80;87.80;;;;;;4931138;29;20017;-71
2023/04/22 05:00:28;;;;;;;;;;;12.80;87.70;;;;;;4948382;29;19925;-71
2023/04/22 05:02:54;;;;;;;;;;;12.80;88.10;;;;;;4948180;29;19973;-71
2023/04/22 05:05:20;;;;;;;;;;;12.80;87.90;;;;;;4931771;29;19949;-71
2023/04/22 05:07:45;;;;;;;;;;;12.90;87.80;;;;;;4933071;29;19926;-72
2023/04/22 05:10:11;;;;;;;;;;;12.90;87.70;;;;;;4931887;29;19922;-72
2023/04/22 05:12:37;;;;;;;;;;;12.90;88.10;;;;;;4933986;29;19918;-72
2023/04/22 05:15:02;;;;;;;;;;;12.90;87.90;;;;;;4934719;29;19940;-72
2023/04/22 05:17:29;;;;;;;;;;;12.90;88.00;;;;;;4936559;29;19942;-72
2023/04/22 05:19:54;;;;;;;;;;;13.00;87.70;;;;;;4935860;29;19910;-71
2023/04/22 05:22:20;;;;;;;;;;;12.90;88.00;;;;;;4936108;29;19925;-72
2023/04/22 05:24:46;;;;;;;;;;;13.00;87.70;;;;;;4932328;29;20288;-72
2023/04/22 05:27:11;;;;;;;;;;;13.10;87.60;;;;;;4951389;29;20331;-72
2023/04/22 05:29:37;;;;;;;;;;;13.10;87.70;;;;;;4949885;29;20291;-72
2023/04/22 05:32:03;;;;;;;;;;;13.10;87.90;;;;;;4935293;29;19930;-71
2023/04/22 05:34:28;;;;;;;;;;;13.10;87.90;;;;;;4950501;28;19922;-71
2023/04/22 05:36:54;;;;;;;;;;;13.10;88.30;;;;;;4934564;29;19922;-71
2023/04/22 05:39:19;;;;;;;;;;;13.10;88.10;;;;;;4935143;29;20240;-71
2023/04/22 05:41:45;;;;;;;;;;;13.20;88.10;;;;;;4950944;29;20363;-72
2023/04/22 05:44:11;;;;;;;;;;;13.20;88.10;;;;;;4934714;29;19914;-72
2023/04/22 05:46:36;;;;;;;;;;;13.30;88.00;;;;;;4933874;29;19926;-71
2023/04/22 05:49:02;;;;;;;;;;;13.30;87.70;;;;;;4934705;29;19922;-72
2023/04/22 05:51:28;;;;;;;;;;;13.30;87.60;;;;;;4948635;28;19918;-72
2023/04/22 05:53:53;;;;;;;;;;;13.40;87.60;;;;;;4950582;29;20222;-71
2023/04/22 05:56:19;;;;;;;;;;;13.50;87.40;;;;;;4897680;29;19919;-71
2023/04/22 05:58:45;;;;;;;;;;;13.50;87.20;;;;;;4935065;29;19989;-71
2023/04/22 06:01:11;;;;;;;;;;;13.50;87.10;;;;;;4915708;29;20035;-71
2023/04/22 06:03:37;;;;;;;;;;;13.60;86.90;;;;;;4911142;29;20001;-71
2023/04/22 06:06:02;;;;;;;;;;;13.70;87.10;;;;;;4918103;29;19926;-71
2023/04/22 06:08:29;;;;;;;;;;;13.70;87.00;;;;;;4900382;29;19926;-70
2023/04/22 06:10:54;;;;;;;;;;;13.80;87.00;;;;;;4915808;29;19926;-71
2023/04/22 06:13:20;;;;;;;;;;;13.80;86.80;;;;;;4911807;29;19918;-71
2023/04/22 06:15:46;;;;;;;;;;;13.80;87.50;;;;;;4916992;29;19915;-71
2023/04/22 06:18:12;;;;;;;;;;;13.80;86.70;;;;;;4916297;29;19914;-71
2023/04/22 06:20:37;;;;;;;;;;;13.90;86.70;;;;;;4894213;29;19922;-71
2023/04/22 06:23:04;;;;;;;;;;;13.90;87.00;;;;;;4912081;29;19937;-71
2023/04/22 06:25:30;;;;;;;;;;;13.90;86.60;;;;;;4915376;29;19915;-71
2023/04/22 06:27:56;;;;;;;;;;;14.00;86.70;;;;;;4911377;29;19922;-71
2023/04/22 06:30:21;;;;;;;;;;;14.00;86.30;;;;;;4915766;29;20320;-71
2023/04/22 06:32:47;;;;;;;;;;;14.10;86.20;;;;;;4930651;29;19929;-71
2023/04/22 06:35:13;;;;;;;;;;;14.20;86.10;;;;;;4897341;29;19915;-71
2023/04/22 06:37:38;;;;;;;;;;;14.20;85.60;;;;;;4916468;29;19923;-71
2023/04/22 06:40:04;;;;;;;;;;;14.20;84.90;;;;;;4915288;29;19915;-71
2023/04/22 06:42:30;;;;;;;;;;;14.30;85.30;;;;;;4911689;29;20344;-71
2023/04/22 06:44:56;;;;;;;;;;;14.30;85.50;;;;;;4914014;29;19919;-71
2023/04/22 06:47:21;;;;;;;;;;;14.40;86.00;;;;;;4898705;29;20255;-71
2023/04/22 06:49:47;;;;;;;;;;;14.40;86.20;;;;;;4914941;29;20280;-71
2023/04/22 06:52:13;;;;;;;;;;;14.50;86.60;;;;;;4912249;29;20366;-71
2023/04/22 06:54:39;;;;;;;;;;;14.50;86.10;;;;;;4919829;29;20274;-71
2023/04/22 06:57:04;;;;;;;;;;;14.50;86.00;;;;;;4934711;29;20328;-71
2023/04/22 06:59:30;;;;;;;;;;;14.50;86.10;;;;;;4932977;29;20348;-71
2023/04/22 07:01:55;;;;;;;;;;;14.60;86.00;;;;;;4933590;29;20209;-71
2023/04/22 07:04:21;;;;;;;;;;;14.70;85.70;;;;;;4946010;29;19957;-71
2023/04/22 07:06:47;;;;;;;;;;;14.70;85.50;;;;;;4949341;29;19914;-71
2023/04/22 07:09:12;;;;;;;;;;;14.80;85.70;;;;;;4933682;29;20235;-71
2023/04/22 07:11:38;;;;;;;;;;;14.80;85.90;;;;;;4930126;29;19930;-71
2023/04/22 07:14:04;;;;;;;;;;;14.90;85.90;;;;;;4949046;29;20314;-72
2023/04/22 07:16:30;;;;;;;;;;;14.90;86.40;;;;;;4934430;29;20308;-71
2023/04/22 07:18:56;;;;;;;;;;;15.10;84.90;;;;;;4948939;29;20009;-71
2023/04/22 07:21:21;;;;;;;;;;;15.10;84.60;;;;;;4934791;29;19982;-71
2023/04/22 07:23:47;;;;;;;;;;;15.20;85.20;;;;;;4949343;29;19946;-71
2023/04/22 07:26:13;;;;;;;;;;;15.20;85.10;;;;;;4914077;29;20006;-71
2023/04/22 07:28:38;;;;;;;;;;;15.30;85.00;;;;;;4932892;29;20235;-71
2023/04/22 07:31:06;;;;;;;;;;;15.30;85.20;;;;;;4948706;29;20225;-71
2023/04/22 07:33:32;;;;;;;;;;;15.40;86.10;;;;;;4933196;29;20339;-71
2023/04/22 07:35:58;;;;;;;;;;;15.40;85.50;;;;;;4928055;29;19926;-71
2023/04/22 07:38:23;;;;;;;;;;;15.50;85.30;;;;;;4932813;29;20367;-71
2023/04/22 07:40:49;;;;;;;;;;;15.60;85.20;;;;;;4932518;29;20015;-71
2023/04/22 07:43:15;;;;;;;;;;;15.60;85.30;;;;;;4931857;29;20213;-71
2023/04/22 07:45:40;;;;;;;;;;;15.70;83.50;;;;;;4931755;29;19914;-71
2023/04/22 07:48:06;;;;;;;;;;;15.70;83.10;;;;;;4948853;29;20017;-71
2023/04/22 07:50:31;;;;;;;;;;;15.70;82.80;;;;;;4942376;29;19975;-71
2023/04/22 07:52:57;;;;;;;;;;;15.80;82.60;;;;;;4948495;28;19919;-71
2023/04/22 07:55:23;;;;;;;;;;;15.90;82.50;;;;;;4945356;29;20453;-71
2023/04/22 07:57:48;;;;;;;;;;;15.90;83.10;;;;;;4946444;29;20259;-71
2023/04/22 08:00:14;;;;;;;;;;;16.00;83.10;;;;;;4947732;29;19993;-71
2023/04/22 08:02:40;;;;;;;;;;;16.00;82.60;;;;;;4949097;29;20009;-71
2023/04/22 08:05:06;;;;;;;;;;;16.10;82.10;;;;;;4933334;29;19922;-71
2023/04/22 08:07:32;;;;;;;;;;;16.10;82.70;;;;;;4931831;29;19918;-71
2023/04/22 08:09:57;;;;;;;;;;;16.20;82.50;;;;;;4932409;29;19957;-71
2023/04/22 08:12:23;;;;;;;;;;;16.30;83.50;;;;;;4948500;29;19982;-71
2023/04/22 08:14:48;;;;;;;;;;;16.30;82.90;;;;;;4947595;29;19922;-71
2023/04/22 08:17:14;;;;;;;;;;;16.30;83.60;;;;;;4933620;29;19910;-71
2023/04/22 08:19:40;;;;;;;;;;;16.40;83.60;;;;;;4932533;29;19915;-71
2023/04/22 08:22:05;;;;;;;;;;;16.40;84.10;;;;;;4913058;29;20359;-71
2023/04/22 08:24:31;;;;;;;;;;;16.50;84.00;;;;;;4932285;29;19918;-71
2023/04/22 08:26:57;;;;;;;;;;;16.50;84.10;;;;;;4948799;29;19918;-71
2023/04/22 08:29:22;;;;;;;;;;;16.60;83.70;;;;;;4945579;29;19961;-71
2023/04/22 08:31:48;;;;;;;;;;;16.50;83.60;;;;;;4932598;29;20041;-71
2023/04/22 08:34:14;;;;;;;;;;;16.60;84.10;;;;;;4932618;29;19919;-71
2023/04/22 08:36:39;;;;;;;;;;;16.60;83.80;;;;;;4947678;29;19915;-71
2023/04/22 08:39:05;;;;;;;;;;;16.70;84.10;;;;;;4932327;29;19915;-71
2023/04/22 08:41:33;;;;;;;;;;;16.70;84.30;;;;;;4932419;29;19921;-71
2023/04/22 08:43:58;;;;;;;;;;;16.70;84.90;;;;;;4946933;29;19925;-71
2023/04/22 08:46:24;;;;;;;;;;;16.70;85.70;;;;;;4932805;29;20025;-71
2023/04/22 08:48:50;;;;;;;;;;;16.80;85.60;;;;;;4950156;29;19915;-71
2023/04/22 08:51:16;;;;;;;;;;;16.90;86.70;;;;;;4937199;29;20280;-72
2023/04/22 08:53:42;;;;;;;;;;;17.00;85.10;;;;;;4951702;29;19966;-71
2023/04/22 08:56:08;;;;;;;;;;;17.10;85.10;;;;;;4935546;29;20031;-71
2023/04/22 08:58:33;;;;;;;;;;;17.10;85.20;;;;;;4949552;29;19914;-71
2023/04/22 09:00:59;;;;;;;;;;;17.30;85.50;;;;;;4936613;29;19973;-71
2023/04/22 09:03:25;;;;;;;;;;;17.40;83.60;;;;;;4935458;29;19918;-71
2023/04/22 09:05:51;;;;;;;;;;;17.40;82.80;;;;;;4950193;29;19915;-71
2023/04/22 09:08:17;;;;;;;;;;;17.40;82.70;;;;;;4936289;29;19915;-71
2023/04/22 09:10:42;;;;;;;;;;;17.40;82.30;;;;;;4935273;29;19914;-71
2023/04/22 09:13:08;;;;;;;;;;;17.50;82.60;;;;;;4936158;29;19923;-71
2023/04/22 09:15:34;;;;;;;;;;;17.50;83.10;;;;;;4935062;29;19922;-71
2023/04/22 09:18:00;;;;;;;;;;;17.70;83.60;;;;;;4936379;29;19965;-71
2023/04/22 09:20:26;;;;;;;;;;;17.80;83.20;;;;;;4934433;29;19914;-71
2023/04/22 09:22:52;;;;;;;;;;;17.80;82.60;;;;;;4918487;29;19983;-71
2023/04/22 09:25:18;;;;;;;;;;;17.80;83.10;;;;;;4951339;29;20237;-71
2023/04/22 09:27:51;;;;;;;;;;;17.90;82.20;;;;;;4950033;29;20001;-71
2023/04/22 09:30:37;;;;;;;;;;;18.00;83.10;;;;;;4934866;29;19969;-71
2023/04/22 09:33:03;;;;;;;;;;;18.10;84.00;;;;;;4933583;29;19925;-71
2023/04/22 09:35:30;;;;;;;;;;;18.20;82.70;;;;;;4934976;29;19929;-71
2023/04/22 09:37:55;;;;;;;;;;;18.20;82.80;;;;;;4935645;29;20009;-71
2023/04/22 09:40:21;;;;;;;;;;;18.40;84.70;;;;;;4933972;29;20315;-71
2023/04/22 09:42:47;;;;;;;;;;;18.50;83.40;;;;;;4950829;29;20355;-72
2023/04/22 09:45:13;;;;;;;;;;;18.50;83.50;;;;;;4950704;29;19918;-71
2023/04/22 09:47:39;;;;;;;;;;;18.60;81.70;;;;;;4949721;29;20224;-72
2023/04/22 09:50:05;;;;;;;;;;;18.50;79.50;;;;;;4945670;29;19915;-72
2023/04/22 09:52:30;;;;;;;;;;;18.60;81.40;;;;;;4950159;29;19923;-72
2023/04/22 09:54:56;;;;;;;;;;;18.80;82.30;;;;;;4933780;29;19926;-72
2023/04/22 09:57:22;;;;;;;;;;;19.00;81.40;;;;;;4935971;29;20355;-72
2023/04/22 09:59:51;;;;;;;;;;;19.10;81.60;;;;;;4934337;29;19910;-72
2023/04/22 10:02:17;;;;;;;;;;;19.20;81.30;;;;;;4945492;29;19911;-72
2023/04/22 10:04:43;;;;;;;;;;;19.30;80.00;;;;;;4951197;29;19925;-72
2023/04/22 10:07:08;;;;;;;;;;;19.30;80.00;;;;;;4947529;29;20413;-72
2023/04/22 10:09:34;;;;;;;;;;;19.40;80.00;;;;;;4949841;29;19974;-71
2023/04/22 10:12:00;;;;;;;;;;;19.60;80.40;;;;;;4950437;29;19911;-71
2023/04/22 10:14:26;;;;;;;;;;;19.70;79.70;;;;;;4949570;29;20005;-72
2023/04/22 10:16:55;;;;;;;;;;;19.70;79.30;;;;;;4934141;29;20320;-72
2023/04/22 10:19:21;;;;;;;;;;;19.80;80.30;;;;;;4935202;29;19914;-72
2023/04/22 10:21:48;;;;;;;;;;;20.10;81.90;;;;;;4918496;29;20262;-72
2023/04/22 10:24:14;;;;;;;;;;;20.10;78.80;;;;;;4948580;29;20351;-72
2023/04/22 10:26:41;;;;;;;;;;;20.20;80.10;;;;;;4950319;29;19953;-72
2023/04/22 10:29:08;;;;;;;;;;;20.40;79.20;;;;;;4915469;29;20301;-72
2023/04/22 10:31:36;;;;;;;;;;;20.50;78.20;;;;;;4933491;29;20368;-72
2023/04/22 10:34:12;;;;;;;;;;;20.80;79.30;;;;;;4948785;29;19927;-72
2023/04/22 10:36:56;;;;;;;;;;;20.50;76.70;;;;;;4950260;29;19915;-72
2023/04/22 10:39:22;;;;;;;;;;;20.70;77.00;;;;;;4927085;29;20388;-71
2023/04/22 10:42:10;;;;;;;;;;;20.80;76.60;;;;;;4950326;29;20411;-71
2023/04/22 10:44:59;;;;;;;;;;;20.80;75.70;;;;;;4944041;29;19910;-71
2023/04/22 10:47:25;;;;;;;;;;;21.00;75.80;;;;;;4934214;29;19910;-72
2023/04/22 10:49:50;;;;;;;;;;;21.30;74.40;;;;;;4949751;29;19911;-72
2023/04/22 10:52:28;;;;;;;;;;;21.20;73.10;;;;;;4948612;29;19915;-72
2023/04/22 10:54:55;;;;;;;;;;;21.30;72.70;;;;;;4927397;29;19930;-72
2023/04/22 10:57:23;;;;;;;;;;;21.40;72.60;;;;;;4914353;29;19942;-71
2023/04/22 10:59:52;;;;;;;;;;;21.50;71.50;;;;;;4914496;29;20408;-72
2023/04/22 11:02:19;;;;;;;;;;;21.50;70.80;;;;;;4922497;29;19929;-72
2023/04/22 11:04:44;;;;;;;;;;;21.50;71.10;;;;;;4911667;29;19915;-72
2023/04/22 11:07:21;;;;;;;;;;;21.60;72.20;;;;;;4914223;29;19915;-72
2023/04/22 11:09:49;;;;;;;;;;;21.80;69.30;;;;;;4909567;29;19925;-72
2023/04/22 11:12:33;;;;;;;;;;;21.70;69.00;;;;;;4900721;29;19914;-72
2023/04/22 11:15:06;;;;;;;;;;;21.70;68.10;;;;;;4918137;29;19926;-72
2023/04/22 11:17:31;;;;;;;;;;;21.70;68.30;;;;;;4914132;29;20236;-72
2023/04/22 11:20:07;;;;;;;;;;;21.60;68.80;;;;;;4914175;29;19911;-72
2023/04/22 11:22:36;;;;;;;;;;;21.80;69.50;;;;;;4918047;29;19921;-72
2023/04/22 11:25:03;;;;;;;;;;;21.90;67.30;;;;;;4912490;29;19911;-72
2023/04/22 11:27:29;;;;;;;;;;;22.00;66.90;;;;;;4912811;29;19966;-72
2023/04/22 11:29:58;;;;;;;;;;;22.10;67.00;;;;;;4914846;29;20323;-72
2023/04/22 11:32:24;;;;;;;;;;;22.20;66.90;;;;;;4896538;29;19941;-71
2023/04/22 11:34:50;;;;;;;;;;;22.40;66.30;;;;;;4914733;29;20498;-71
2023/04/22 11:37:17;;;;;;;;;;;22.40;65.90;;;;;;4913860;29;19919;-72
2023/04/22 11:39:43;;;;;;;;;;;22.50;67.90;;;;;;4914999;29;19973;-72
2023/04/22 11:42:11;;;;;;;;;;;22.70;65.20;;;;;;4913752;29;19927;-72
2023/04/22 11:44:37;;;;;;;;;;;22.60;64.80;;;;;;4913849;29;19951;-73
2023/04/22 11:47:03;;;;;;;;;;;22.40;64.00;;;;;;4911021;29;19918;-72
2023/04/22 11:49:31;;;;;;;;;;;22.70;63.70;;;;;;4913639;29;20304;-72
2023/04/22 11:51:57;;;;;;;;;;;22.80;63.10;;;;;;4913806;29;19951;-72
2023/04/22 11:54:32;;;;;;;;;;;22.80;62.20;;;;;;4912065;29;19926;-72
2023/04/22 11:57:04;;;;;;;;;;;22.80;63.80;;;;;;4945633;28;19989;-72
2023/04/22 11:59:30;;;;;;;;;;;22.90;63.40;;;;;;4932764;29;19922;-72
2023/04/22 12:01:55;;;;;;;;;;;22.80;64.10;;;;;;4932955;29;19985;-72
2023/04/22 12:04:21;;;;;;;;;;;23.00;64.50;;;;;;4949005;29;20002;-72
2023/04/22 12:06:47;;;;;;;;;;;23.20;64.70;;;;;;4932638;29;19915;-71
2023/04/22 12:09:15;;;;;;;;;;;23.10;63.80;;;;;;4948685;29;19922;-72
2023/04/22 12:11:40;;;;;;;;;;;23.10;64.00;;;;;;4933259;29;19914;-72
2023/04/22 12:14:06;;;;;;;;;;;23.10;63.80;;;;;;4947936;29;19977;-71
2023/04/22 12:16:39;;;;;;;;;;;23.20;63.10;;;;;;4948295;29;19960;-71
2023/04/22 12:19:04;;;;;;;;;;;23.30;64.50;;;;;;4942875;29;19925;-72
2023/04/22 12:21:30;;;;;;;;;;;23.50;62.10;;;;;;4932459;29;19914;-72
2023/04/22 12:23:58;;;;;;;;;;;23.40;62.20;;;;;;4951947;29;20332;-72
2023/04/22 12:26:23;;;;;;;;;;;23.30;61.50;;;;;;4935068;29;19994;-72
2023/04/22 12:28:49;;;;;;;;;;;23.30;62.20;;;;;;4936161;29;19935;-72
2023/04/22 12:31:15;;;;;;;;;;;23.50;62.10;;;;;;4950234;29;19922;-72
2023/04/22 12:33:41;;;;;;;;;;;23.50;60.70;;;;;;4936390;29;19922;-72
2023/04/22 12:36:06;;;;;;;;;;;23.60;60.70;;;;;;4935670;29;19915;-72
2023/04/22 12:38:32;;;;;;;;;;;23.70;61.50;;;;;;4936033;29;20005;-72
2023/04/22 12:40:58;;;;;;;;;;;23.80;61.00;;;;;;4951832;29;20272;-71
2023/04/22 12:43:24;;;;;;;;;;;23.80;58.80;;;;;;4935556;29;19946;-72
2023/04/22 12:45:49;;;;;;;;;;;23.80;56.70;;;;;;4952250;29;19922;-72
2023/04/22 12:48:15;;;;;;;;;;;23.80;54.30;;;;;;4932218;29;19919;-72
2023/04/22 12:50:41;;;;;;;;;;;23.80;56.60;;;;;;4948473;29;19922;-72
2023/04/22 12:53:06;;;;;;;;;;;24.00;59.20;;;;;;4951442;28;19929;-71
2023/04/22 12:55:32;;;;;;;;;;;24.00;58.80;;;;;;4934540;29;20009;-72
2023/04/22 12:57:58;;;;;;;;;;;24.10;58.50;;;;;;4951697;29;19919;-72
2023/04/22 13:00:24;;;;;;;;;;;24.10;54.00;;;;;;4933792;29;19922;-71
2023/04/22 13:02:50;;;;;;;;;;;24.10;51.20;;;;;;4931438;29;20492;-72
2023/04/22 13:05:16;;;;;;;;;;;24.20;52.00;;;;;;4935580;29;19926;-72
2023/04/22 13:07:41;;;;;;;;;;;24.10;53.30;;;;;;4935669;29;19921;-71
2023/04/22 13:10:07;;;;;;;;;;;24.10;55.20;;;;;;4934928;29;19954;-71
2023/04/22 13:12:33;;;;;;;;;;;23.80;55.10;;;;;;4951412;29;19914;-70
2023/04/22 13:14:59;;;;;;;;;;;23.70;55.20;;;;;;4951479;29;19919;-71
2023/04/22 13:17:25;;;;;;;;;;;23.70;55.40;;;;;;4945553;29;19922;-71
2023/04/22 13:19:52;;;;;;;;;;;23.90;55.70;;;;;;4935770;29;20314;-71
2023/04/22 13:22:18;;;;;;;;;;;24.00;55.80;;;;;;4928801;29;20308;-71
2023/04/22 13:24:43;;;;;;;;;;;23.90;53.50;;;;;;4951228;29;19911;-72
2023/04/22 13:27:09;;;;;;;;;;;24.00;54.00;;;;;;4948863;29;19921;-71
2023/04/22 13:29:35;;;;;;;;;;;23.90;53.90;;;;;;4951374;29;20407;-71
2023/04/22 13:32:01;;;;;;;;;;;24.10;54.30;;;;;;4949868;29;20398;-72
2023/04/22 13:34:26;;;;;;;;;;;24.10;55.80;;;;;;4932184;29;20247;-72
2023/04/22 13:36:52;;;;;;;;;;;23.90;55.50;;;;;;4935026;29;19926;-72
2023/04/22 13:39:18;;;;;;;;;;;23.80;55.60;;;;;;4950204;29;20434;-71
2023/04/22 13:41:44;;;;;;;;;;;23.50;54.80;;;;;;4935511;29;19914;-71
2023/04/22 13:44:10;;;;;;;;;;;23.40;54.40;;;;;;4934887;29;19915;-72
2023/04/22 13:46:35;;;;;;;;;;;23.30;55.90;;;;;;4949242;29;19925;-72
2023/04/22 13:49:01;;;;;;;;;;;23.40;55.50;;;;;;4935634;29;19997;-72
2023/04/22 13:51:27;;;;;;;;;;;23.50;54.40;;;;;;4934382;29;19919;-71
2023/04/22 13:53:52;;;;;;;;;;;23.40;55.50;;;;;;4934530;29;19919;-72
2023/04/22 13:56:18;;;;;;;;;;;23.30;53.70;;;;;;4919707;29;19969;-72
2023/04/22 13:58:44;;;;;;;;;;;23.10;53.00;;;;;;4928746;29;19954;-71
2023/04/22 14:01:09;;;;;;;;;;;23.10;53.80;;;;;;4914832;29;19915;-72
2023/04/22 14:03:35;;;;;;;;;;;23.00;52.30;;;;;;4915790;29;20256;-72
2023/04/22 14:06:02;;;;;;;;;;;22.90;52.60;;;;;;4916113;29;20358;-71
2023/04/22 14:08:28;;;;;;;;;;;22.70;53.10;;;;;;4909533;29;19911;-72
2023/04/22 14:10:53;;;;;;;;;;;22.60;55.30;;;;;;4914886;29;19915;-71